sensor_id;sensor_type;location;lat;lon;timestamp;P1;durP1;ratioP1;P2;durP2;ratioP2
7076;SDS011;3579;48.956;9.154;2024-02-21T00:01:03;1.00;;;0.90;;
7076;SDS011;3579;48.956;9.154;2024-02-21T00:03:29;1.00;;;0.90;;
7076;SDS011;3579;48.956;9.154;2024-02-21T00:05:56;1.40;;;1.10;;
7076;SDS011;3579;48.956;9.154;2024-02-21T00:08:22;1.33;;;1.20;;
7076;SDS011;3579;48.956;9.154;2024-02-21T00:10:48;1.30;;;1.10;;
7076;SDS011;3579;48.956;9.154;2024-02-21T00:13:14;1.60;;;1.20;;
7076;SDS011;3579;48.956;9.154;2024-02-21T00:15:40;1.60;;;1.20;;
7076;SDS011;3579;48.956;9.154;2024-02-21T00:18:06;1.50;;;1.30;;
7076;SDS011;3579;48.956;9.154;2024-02-21T00:20:33;1.13;;;1.03;;
7076;SDS011;3579;48.956;9.154;2024-02-21T00:22:59;1.57;;;1.20;;
7076;SDS011;3579;48.956;9.154;2024-02-21T00:25:25;1.97;;;1.27;;
7076;SDS011;3579;48.956;9.154;2024-02-21T00:27:51;1.10;;;1.00;;
7076;SDS011;3579;48.956;9.154;2024-02-21T00:30:17;1.30;;;1.20;;
7076;SDS011;3579;48.956;9.154;2024-02-21T00:32:43;1.87;;;1.30;;
7076;SDS011;3579;48.956;9.154;2024-02-21T00:35:09;1.40;;;1.23;;
7076;SDS011;3579;48.956;9.154;2024-02-21T00:37:35;2.13;;;1.10;;
7076;SDS011;3579;48.956;9.154;2024-02-21T00:40:01;1.53;;;1.23;;
7076;SDS011;3579;48.956;9.154;2024-02-21T00:42:27;1.60;;;1.30;;
7076;SDS011;3579;48.956;9.154;2024-02-21T00:44:53;1.20;;;1.10;;
7076;SDS011;3579;48.956;9.154;2024-02-21T00:47:19;1.30;;;1.20;;
7076;SDS011;3579;48.956;9.154;2024-02-21T00:49:45;1.27;;;1.10;;
7076;SDS011;3579;48.956;9.154;2024-02-21T00:52:11;1.67;;;1.20;;
7076;SDS011;3579;48.956;9.154;2024-02-21T00:54:37;1.87;;;1.20;;
7076;SDS011;3579;48.956;9.154;2024-02-21T00:57:03;1.30;;;1.10;;
7076;SDS011;3579;48.956;9.154;2024-02-21T00:59:29;1.70;;;1.17;;
7076;SDS011;3579;48.956;9.154;2024-02-21T01:01:55;1.50;;;1.20;;
7076;SDS011;3579;48.956;9.154;2024-02-21T01:04:21;1.20;;;1.10;;
7076;SDS011;3579;48.956;9.154;2024-02-21T01:06:47;1.30;;;1.10;;
7076;SDS011;3579;48.956;9.154;2024-02-21T01:09:13;1.50;;;1.23;;
7076;SDS011;3579;48.956;9.154;2024-02-21T01:11:39;1.20;;;1.07;;
7076;SDS011;3579;48.956;9.154;2024-02-21T01:14:05;1.60;;;1.20;;
7076;SDS011;3579;48.956;9.154;2024-02-21T01:16:31;1.43;;;1.30;;
7076;SDS011;3579;48.956;9.154;2024-02-21T01:18:57;1.33;;;1.23;;
7076;SDS011;3579;48.956;9.154;2024-02-21T01:21:23;1.53;;;1.20;;
7076;SDS011;3579;48.956;9.154;2024-02-21T01:23:49;1.27;;;1.10;;
7076;SDS011;3579;48.956;9.154;2024-02-21T01:26:15;1.07;;;0.97;;
7076;SDS011;3579;48.956;9.154;2024-02-21T01:28:41;1.30;;;1.20;;
7076;SDS011;3579;48.956;9.154;2024-02-21T01:31:07;1.53;;;1.20;;
7076;SDS011;3579;48.956;9.154;2024-02-21T01:33:33;1.43;;;1.20;;
7076;SDS011;3579;48.956;9.154;2024-02-21T01:36:04;1.80;;;1.30;;
7076;SDS011;3579;48.956;9.154;2024-02-21T01:38:33;1.47;;;1.30;;
7076;SDS011;3579;48.956;9.154;2024-02-21T01:40:59;1.93;;;1.27;;
7076;SDS011;3579;48.956;9.154;2024-02-21T01:43:26;2.17;;;1.57;;
7076;SDS011;3579;48.956;9.154;2024-02-21T01:45:53;1.50;;;1.10;;
7076;SDS011;3579;48.956;9.154;2024-02-21T01:48:24;1.23;;;1.10;;
7076;SDS011;3579;48.956;9.154;2024-02-21T01:50:50;1.20;;;1.10;;
7076;SDS011;3579;48.956;9.154;2024-02-21T01:53:20;1.37;;;1.20;;
7076;SDS011;3579;48.956;9.154;2024-02-21T01:55:48;2.03;;;1.33;;
7076;SDS011;3579;48.956;9.154;2024-02-21T01:58:14;1.67;;;1.23;;
7076;SDS011;3579;48.956;9.154;2024-02-21T02:00:44;1.80;;;1.20;;
7076;SDS011;3579;48.956;9.154;2024-02-21T02:03:13;1.30;;;1.20;;
7076;SDS011;3579;48.956;9.154;2024-02-21T02:08:20;1.20;;;1.00;;
7076;SDS011;3579;48.956;9.154;2024-02-21T02:10:49;1.57;;;1.30;;
7076;SDS011;3579;48.956;9.154;2024-02-21T02:13:15;1.73;;;1.33;;
7076;SDS011;3579;48.956;9.154;2024-02-21T02:15:42;1.23;;;1.00;;
7076;SDS011;3579;48.956;9.154;2024-02-21T02:18:09;1.70;;;1.37;;
7076;SDS011;3579;48.956;9.154;2024-02-21T02:20:36;1.63;;;1.30;;
7076;SDS011;3579;48.956;9.154;2024-02-21T02:23:24;1.37;;;1.23;;
7076;SDS011;3579;48.956;9.154;2024-02-21T02:25:53;1.30;;;1.10;;
7076;SDS011;3579;48.956;9.154;2024-02-21T02:28:19;1.57;;;1.20;;
7076;SDS011;3579;48.956;9.154;2024-02-21T02:30:46;1.33;;;1.13;;
7076;SDS011;3579;48.956;9.154;2024-02-21T02:33:12;1.60;;;1.33;;
7076;SDS011;3579;48.956;9.154;2024-02-21T02:35:39;1.20;;;1.10;;
7076;SDS011;3579;48.956;9.154;2024-02-21T02:38:05;1.33;;;1.20;;
7076;SDS011;3579;48.956;9.154;2024-02-21T02:40:33;1.67;;;1.30;;
7076;SDS011;3579;48.956;9.154;2024-02-21T02:42:59;1.83;;;1.23;;
7076;SDS011;3579;48.956;9.154;2024-02-21T02:45:25;1.50;;;1.10;;
7076;SDS011;3579;48.956;9.154;2024-02-21T02:47:52;1.50;;;1.30;;
7076;SDS011;3579;48.956;9.154;2024-02-21T02:50:25;1.20;;;1.10;;
7076;SDS011;3579;48.956;9.154;2024-02-21T02:52:52;1.53;;;1.27;;
7076;SDS011;3579;48.956;9.154;2024-02-21T02:55:19;1.60;;;1.27;;
7076;SDS011;3579;48.956;9.154;2024-02-21T02:57:45;1.40;;;1.20;;
7076;SDS011;3579;48.956;9.154;2024-02-21T03:00:12;1.70;;;1.20;;
7076;SDS011;3579;48.956;9.154;2024-02-21T03:02:39;1.47;;;1.20;;
7076;SDS011;3579;48.956;9.154;2024-02-21T03:07:42;1.70;;;1.27;;
7076;SDS011;3579;48.956;9.154;2024-02-21T03:10:09;1.50;;;1.20;;
7076;SDS011;3579;48.956;9.154;2024-02-21T03:12:35;1.20;;;1.10;;
7076;SDS011;3579;48.956;9.154;2024-02-21T03:15:02;1.47;;;1.10;;
7076;SDS011;3579;48.956;9.154;2024-02-21T03:17:28;1.33;;;1.20;;
7076;SDS011;3579;48.956;9.154;2024-02-21T03:19:54;1.20;;;1.10;;
7076;SDS011;3579;48.956;9.154;2024-02-21T03:22:21;1.50;;;1.30;;
7076;SDS011;3579;48.956;9.154;2024-02-21T03:24:48;1.40;;;1.20;;
7076;SDS011;3579;48.956;9.154;2024-02-21T03:27:14;1.40;;;1.20;;
7076;SDS011;3579;48.956;9.154;2024-02-21T03:29:40;1.33;;;1.17;;
7076;SDS011;3579;48.956;9.154;2024-02-21T03:32:06;1.20;;;1.10;;
7076;SDS011;3579;48.956;9.154;2024-02-21T03:34:32;1.57;;;1.20;;
7076;SDS011;3579;48.956;9.154;2024-02-21T03:36:58;1.37;;;1.10;;
7076;SDS011;3579;48.956;9.154;2024-02-21T03:39:25;2.17;;;1.50;;
7076;SDS011;3579;48.956;9.154;2024-02-21T03:41:51;1.70;;;1.23;;
7076;SDS011;3579;48.956;9.154;2024-02-21T03:44:17;1.80;;;1.20;;
7076;SDS011;3579;48.956;9.154;2024-02-21T03:46:43;1.67;;;1.33;;
7076;SDS011;3579;48.956;9.154;2024-02-21T03:49:09;1.73;;;1.33;;
7076;SDS011;3579;48.956;9.154;2024-02-21T03:51:35;1.63;;;1.30;;
7076;SDS011;3579;48.956;9.154;2024-02-21T03:54:01;1.40;;;1.23;;
7076;SDS011;3579;48.956;9.154;2024-02-21T03:56:27;1.40;;;1.23;;
7076;SDS011;3579;48.956;9.154;2024-02-21T03:58:53;1.10;;;1.00;;
7076;SDS011;3579;48.956;9.154;2024-02-21T04:01:19;1.60;;;1.10;;
7076;SDS011;3579;48.956;9.154;2024-02-21T04:03:45;1.47;;;1.20;;
7076;SDS011;3579;48.956;9.154;2024-02-21T04:06:11;1.63;;;1.23;;
7076;SDS011;3579;48.956;9.154;2024-02-21T04:08:38;1.53;;;1.10;;
7076;SDS011;3579;48.956;9.154;2024-02-21T04:11:04;1.40;;;1.27;;
7076;SDS011;3579;48.956;9.154;2024-02-21T04:13:30;1.70;;;1.20;;
7076;SDS011;3579;48.956;9.154;2024-02-21T04:15:56;1.30;;;1.10;;
7076;SDS011;3579;48.956;9.154;2024-02-21T04:18:22;1.47;;;1.10;;
7076;SDS011;3579;48.956;9.154;2024-02-21T04:20:48;1.57;;;1.27;;
7076;SDS011;3579;48.956;9.154;2024-02-21T04:23:15;1.33;;;1.20;;
7076;SDS011;3579;48.956;9.154;2024-02-21T04:25:41;1.50;;;1.30;;
7076;SDS011;3579;48.956;9.154;2024-02-21T04:28:07;1.73;;;1.20;;
7076;SDS011;3579;48.956;9.154;2024-02-21T04:30:33;1.30;;;1.20;;
7076;SDS011;3579;48.956;9.154;2024-02-21T04:32:59;1.50;;;1.40;;
7076;SDS011;3579;48.956;9.154;2024-02-21T04:35:26;1.20;;;1.10;;
7076;SDS011;3579;48.956;9.154;2024-02-21T04:37:52;1.90;;;1.17;;
7076;SDS011;3579;48.956;9.154;2024-02-21T04:40:18;1.60;;;1.40;;
7076;SDS011;3579;48.956;9.154;2024-02-21T04:42:44;1.73;;;1.20;;
7076;SDS011;3579;48.956;9.154;2024-02-21T04:45:10;1.83;;;1.50;;
7076;SDS011;3579;48.956;9.154;2024-02-21T04:47:36;1.47;;;1.20;;
7076;SDS011;3579;48.956;9.154;2024-02-21T04:50:02;1.33;;;1.23;;
7076;SDS011;3579;48.956;9.154;2024-02-21T04:52:28;1.67;;;1.30;;
7076;SDS011;3579;48.956;9.154;2024-02-21T04:54:55;1.63;;;1.30;;
7076;SDS011;3579;48.956;9.154;2024-02-21T04:57:21;1.20;;;1.10;;
7076;SDS011;3579;48.956;9.154;2024-02-21T04:59:47;1.60;;;1.20;;
7076;SDS011;3579;48.956;9.154;2024-02-21T05:02:13;2.90;;;1.20;;
7076;SDS011;3579;48.956;9.154;2024-02-21T05:04:39;1.53;;;1.37;;
7076;SDS011;3579;48.956;9.154;2024-02-21T05:07:07;1.47;;;1.10;;
7076;SDS011;3579;48.956;9.154;2024-02-21T05:09:33;1.27;;;1.17;;
7076;SDS011;3579;48.956;9.154;2024-02-21T05:11:59;1.80;;;1.30;;
7076;SDS011;3579;48.956;9.154;2024-02-21T05:14:25;1.77;;;1.40;;
7076;SDS011;3579;48.956;9.154;2024-02-21T05:16:54;1.20;;;1.10;;
7076;SDS011;3579;48.956;9.154;2024-02-21T05:19:21;1.50;;;1.40;;
7076;SDS011;3579;48.956;9.154;2024-02-21T05:21:47;1.60;;;1.17;;
7076;SDS011;3579;48.956;9.154;2024-02-21T05:24:13;2.00;;;1.30;;
7076;SDS011;3579;48.956;9.154;2024-02-21T05:26:39;1.23;;;1.13;;
7076;SDS011;3579;48.956;9.154;2024-02-21T05:29:05;1.50;;;1.33;;
7076;SDS011;3579;48.956;9.154;2024-02-21T05:34:15;1.50;;;1.30;;
7076;SDS011;3579;48.956;9.154;2024-02-21T05:36:42;1.87;;;1.30;;
7076;SDS011;3579;48.956;9.154;2024-02-21T05:39:08;1.63;;;1.30;;
7076;SDS011;3579;48.956;9.154;2024-02-21T05:41:34;1.60;;;1.40;;
7076;SDS011;3579;48.956;9.154;2024-02-21T05:44:00;1.50;;;1.20;;
7076;SDS011;3579;48.956;9.154;2024-02-21T05:46:26;2.80;;;1.30;;
7076;SDS011;3579;48.956;9.154;2024-02-21T05:48:52;1.20;;;1.10;;
7076;SDS011;3579;48.956;9.154;2024-02-21T05:51:18;1.60;;;1.30;;
7076;SDS011;3579;48.956;9.154;2024-02-21T05:53:44;1.73;;;1.43;;
7076;SDS011;3579;48.956;9.154;2024-02-21T05:56:10;1.83;;;1.40;;
7076;SDS011;3579;48.956;9.154;2024-02-21T05:58:37;2.60;;;1.40;;
7076;SDS011;3579;48.956;9.154;2024-02-21T06:01:04;1.90;;;1.20;;
7076;SDS011;3579;48.956;9.154;2024-02-21T06:03:32;1.73;;;1.40;;
7076;SDS011;3579;48.956;9.154;2024-02-21T06:05:59;1.43;;;1.20;;
7076;SDS011;3579;48.956;9.154;2024-02-21T06:08:26;2.97;;;1.70;;
7076;SDS011;3579;48.956;9.154;2024-02-21T06:10:52;2.40;;;1.60;;
7076;SDS011;3579;48.956;9.154;2024-02-21T06:13:26;1.70;;;1.30;;
7076;SDS011;3579;48.956;9.154;2024-02-21T06:15:52;2.53;;;1.40;;
7076;SDS011;3579;48.956;9.154;2024-02-21T06:18:19;2.30;;;1.53;;
7076;SDS011;3579;48.956;9.154;2024-02-21T06:20:45;1.60;;;1.20;;
7076;SDS011;3579;48.956;9.154;2024-02-21T06:23:12;1.67;;;1.30;;
7076;SDS011;3579;48.956;9.154;2024-02-21T06:25:39;1.47;;;1.30;;
7076;SDS011;3579;48.956;9.154;2024-02-21T06:28:05;1.20;;;1.07;;
7076;SDS011;3579;48.956;9.154;2024-02-21T06:30:31;1.60;;;1.23;;
7076;SDS011;3579;48.956;9.154;2024-02-21T06:32:57;2.60;;;1.40;;
7076;SDS011;3579;48.956;9.154;2024-02-21T06:35:24;1.37;;;1.27;;
7076;SDS011;3579;48.956;9.154;2024-02-21T06:37:51;1.47;;;1.10;;
7076;SDS011;3579;48.956;9.154;2024-02-21T06:40:21;1.53;;;1.27;;
7076;SDS011;3579;48.956;9.154;2024-02-21T06:42:47;1.83;;;1.50;;
7076;SDS011;3579;48.956;9.154;2024-02-21T06:45:14;2.60;;;1.50;;
7076;SDS011;3579;48.956;9.154;2024-02-21T06:47:41;1.90;;;1.40;;
7076;SDS011;3579;48.956;9.154;2024-02-21T06:50:07;2.57;;;1.50;;
7076;SDS011;3579;48.956;9.154;2024-02-21T06:52:34;1.83;;;1.40;;
7076;SDS011;3579;48.956;9.154;2024-02-21T06:55:00;2.33;;;1.47;;
7076;SDS011;3579;48.956;9.154;2024-02-21T06:57:28;1.57;;;1.20;;
7076;SDS011;3579;48.956;9.154;2024-02-21T06:59:54;1.97;;;1.33;;
7076;SDS011;3579;48.956;9.154;2024-02-21T07:02:20;1.57;;;1.40;;
7076;SDS011;3579;48.956;9.154;2024-02-21T07:04:46;1.80;;;1.17;;
7076;SDS011;3579;48.956;9.154;2024-02-21T07:07:13;2.00;;;1.40;;
7076;SDS011;3579;48.956;9.154;2024-02-21T07:09:39;2.30;;;1.43;;
7076;SDS011;3579;48.956;9.154;2024-02-21T07:12:05;1.70;;;1.30;;
7076;SDS011;3579;48.956;9.154;2024-02-21T07:14:36;1.57;;;1.40;;
7076;SDS011;3579;48.956;9.154;2024-02-21T07:17:02;2.43;;;1.50;;
7076;SDS011;3579;48.956;9.154;2024-02-21T07:19:28;10.30;;;3.20;;
7076;SDS011;3579;48.956;9.154;2024-02-21T07:21:55;10.57;;;4.17;;
7076;SDS011;3579;48.956;9.154;2024-02-21T07:24:22;11.97;;;3.80;;
7076;SDS011;3579;48.956;9.154;2024-02-21T07:26:48;8.70;;;3.53;;
7076;SDS011;3579;48.956;9.154;2024-02-21T07:29:14;9.57;;;3.97;;
7076;SDS011;3579;48.956;9.154;2024-02-21T07:31:40;11.53;;;3.40;;
7076;SDS011;3579;48.956;9.154;2024-02-21T07:34:07;9.13;;;3.23;;
7076;SDS011;3579;48.956;9.154;2024-02-21T07:36:34;8.43;;;3.10;;
7076;SDS011;3579;48.956;9.154;2024-02-21T07:39:00;10.30;;;3.70;;
7076;SDS011;3579;48.956;9.154;2024-02-21T07:41:26;8.47;;;2.90;;
7076;SDS011;3579;48.956;9.154;2024-02-21T07:43:55;10.67;;;3.00;;
7076;SDS011;3579;48.956;9.154;2024-02-21T07:46:21;9.57;;;3.17;;
7076;SDS011;3579;48.956;9.154;2024-02-21T07:48:48;11.90;;;3.20;;
7076;SDS011;3579;48.956;9.154;2024-02-21T07:51:14;7.43;;;3.20;;
7076;SDS011;3579;48.956;9.154;2024-02-21T07:53:43;11.30;;;3.40;;
7076;SDS011;3579;48.956;9.154;2024-02-21T07:56:14;10.53;;;3.07;;
7076;SDS011;3579;48.956;9.154;2024-02-21T07:58:41;11.57;;;2.97;;
7076;SDS011;3579;48.956;9.154;2024-02-21T08:01:07;10.80;;;2.87;;
7076;SDS011;3579;48.956;9.154;2024-02-21T08:03:34;9.43;;;2.90;;
7076;SDS011;3579;48.956;9.154;2024-02-21T08:06:00;7.93;;;2.60;;
7076;SDS011;3579;48.956;9.154;2024-02-21T08:08:28;11.13;;;2.83;;
7076;SDS011;3579;48.956;9.154;2024-02-21T08:10:54;8.97;;;2.60;;
7076;SDS011;3579;48.956;9.154;2024-02-21T08:13:20;10.33;;;3.40;;
7076;SDS011;3579;48.956;9.154;2024-02-21T08:15:46;8.33;;;3.27;;
7076;SDS011;3579;48.956;9.154;2024-02-21T08:18:12;10.47;;;2.83;;
7076;SDS011;3579;48.956;9.154;2024-02-21T08:20:39;8.40;;;2.90;;
7076;SDS011;3579;48.956;9.154;2024-02-21T08:23:05;7.13;;;3.40;;
7076;SDS011;3579;48.956;9.154;2024-02-21T08:25:31;8.07;;;3.20;;
7076;SDS011;3579;48.956;9.154;2024-02-21T08:27:57;8.30;;;2.70;;
7076;SDS011;3579;48.956;9.154;2024-02-21T08:30:24;6.47;;;2.60;;
7076;SDS011;3579;48.956;9.154;2024-02-21T08:32:51;8.70;;;2.80;;
7076;SDS011;3579;48.956;9.154;2024-02-21T08:35:17;6.90;;;2.70;;
7076;SDS011;3579;48.956;9.154;2024-02-21T08:37:44;8.63;;;2.77;;
7076;SDS011;3579;48.956;9.154;2024-02-21T08:40:13;7.07;;;2.70;;
7076;SDS011;3579;48.956;9.154;2024-02-21T08:42:43;5.97;;;2.40;;
7076;SDS011;3579;48.956;9.154;2024-02-21T08:45:09;8.13;;;2.60;;
7076;SDS011;3579;48.956;9.154;2024-02-21T08:47:36;11.27;;;3.03;;
7076;SDS011;3579;48.956;9.154;2024-02-21T08:50:04;9.27;;;3.00;;
7076;SDS011;3579;48.956;9.154;2024-02-21T08:52:31;11.97;;;2.90;;
7076;SDS011;3579;48.956;9.154;2024-02-21T08:54:57;7.23;;;2.30;;
7076;SDS011;3579;48.956;9.154;2024-02-21T08:57:23;7.63;;;2.80;;
7076;SDS011;3579;48.956;9.154;2024-02-21T08:59:49;7.47;;;2.63;;
7076;SDS011;3579;48.956;9.154;2024-02-21T09:02:16;10.30;;;3.60;;
7076;SDS011;3579;48.956;9.154;2024-02-21T09:04:42;7.83;;;2.60;;
7076;SDS011;3579;48.956;9.154;2024-02-21T09:07:12;9.20;;;2.70;;
7076;SDS011;3579;48.956;9.154;2024-02-21T09:09:38;8.30;;;2.87;;
7076;SDS011;3579;48.956;9.154;2024-02-21T09:12:06;8.13;;;2.80;;
7076;SDS011;3579;48.956;9.154;2024-02-21T09:14:33;7.97;;;2.90;;
7076;SDS011;3579;48.956;9.154;2024-02-21T09:17:00;5.97;;;2.60;;
7076;SDS011;3579;48.956;9.154;2024-02-21T09:19:26;6.68;;;2.70;;
7076;SDS011;3579;48.956;9.154;2024-02-21T09:21:52;6.73;;;2.30;;
7076;SDS011;3579;48.956;9.154;2024-02-21T09:24:18;5.93;;;2.77;;
7076;SDS011;3579;48.956;9.154;2024-02-21T09:26:46;5.47;;;2.40;;
7076;SDS011;3579;48.956;9.154;2024-02-21T09:29:24;9.40;;;2.80;;
7076;SDS011;3579;48.956;9.154;2024-02-21T09:31:59;5.93;;;2.30;;
7076;SDS011;3579;48.956;9.154;2024-02-21T09:34:29;5.90;;;2.67;;
7076;SDS011;3579;48.956;9.154;2024-02-21T09:37:05;7.03;;;2.43;;
7076;SDS011;3579;48.956;9.154;2024-02-21T09:39:32;4.43;;;2.10;;
7076;SDS011;3579;48.956;9.154;2024-02-21T09:41:59;3.90;;;2.13;;
7076;SDS011;3579;48.956;9.154;2024-02-21T09:44:33;5.93;;;2.20;;
7076;SDS011;3579;48.956;9.154;2024-02-21T09:47:03;7.93;;;2.33;;
7076;SDS011;3579;48.956;9.154;2024-02-21T09:49:32;6.88;;;2.22;;
7076;SDS011;3579;48.956;9.154;2024-02-21T09:52:02;6.82;;;2.42;;
7076;SDS011;3579;48.956;9.154;2024-02-21T09:54:29;8.13;;;2.50;;
7076;SDS011;3579;48.956;9.154;2024-02-21T09:57:02;10.97;;;2.27;;
7076;SDS011;3579;48.956;9.154;2024-02-21T09:59:30;7.87;;;2.47;;
7076;SDS011;3579;48.956;9.154;2024-02-21T10:01:58;5.00;;;2.50;;
7076;SDS011;3579;48.956;9.154;2024-02-21T10:04:27;6.30;;;2.20;;
7076;SDS011;3579;48.956;9.154;2024-02-21T10:06:53;6.10;;;2.10;;
7076;SDS011;3579;48.956;9.154;2024-02-21T10:09:26;7.33;;;2.40;;
7076;SDS011;3579;48.956;9.154;2024-02-21T10:11:54;6.10;;;2.10;;
7076;SDS011;3579;48.956;9.154;2024-02-21T10:14:21;5.10;;;2.20;;
7076;SDS011;3579;48.956;9.154;2024-02-21T10:16:48;5.30;;;2.33;;
7076;SDS011;3579;48.956;9.154;2024-02-21T10:19:21;3.80;;;1.90;;
7076;SDS011;3579;48.956;9.154;2024-02-21T10:24:36;5.80;;;2.13;;
7076;SDS011;3579;48.956;9.154;2024-02-21T10:27:09;7.07;;;2.40;;
7076;SDS011;3579;48.956;9.154;2024-02-21T10:29:39;6.17;;;2.37;;
7076;SDS011;3579;48.956;9.154;2024-02-21T10:32:13;7.80;;;2.30;;
7076;SDS011;3579;48.956;9.154;2024-02-21T10:34:41;5.73;;;2.60;;
7076;SDS011;3579;48.956;9.154;2024-02-21T10:37:08;10.50;;;2.40;;
7076;SDS011;3579;48.956;9.154;2024-02-21T10:39:36;8.07;;;2.20;;
7076;SDS011;3579;48.956;9.154;2024-02-21T10:42:03;6.30;;;2.00;;
7076;SDS011;3579;48.956;9.154;2024-02-21T10:44:36;6.03;;;2.43;;
7076;SDS011;3579;48.956;9.154;2024-02-21T10:47:07;9.07;;;2.10;;
7076;SDS011;3579;48.956;9.154;2024-02-21T10:49:36;7.37;;;2.17;;
7076;SDS011;3579;48.956;9.154;2024-02-21T10:52:17;4.67;;;2.20;;
7076;SDS011;3579;48.956;9.154;2024-02-21T10:55:09;7.40;;;2.40;;
7076;SDS011;3579;48.956;9.154;2024-02-21T10:57:38;5.93;;;2.37;;
7076;SDS011;3579;48.956;9.154;2024-02-21T11:00:05;5.80;;;2.40;;
7076;SDS011;3579;48.956;9.154;2024-02-21T11:02:37;4.67;;;2.20;;
7076;SDS011;3579;48.956;9.154;2024-02-21T11:05:05;5.13;;;2.20;;
7076;SDS011;3579;48.956;9.154;2024-02-21T11:07:33;3.80;;;2.20;;
7076;SDS011;3579;48.956;9.154;2024-02-21T11:10:02;9.70;;;2.13;;
7076;SDS011;3579;48.956;9.154;2024-02-21T11:12:32;4.43;;;2.00;;
7076;SDS011;3579;48.956;9.154;2024-02-21T11:15:05;5.17;;;2.00;;
7076;SDS011;3579;48.956;9.154;2024-02-21T11:17:31;3.67;;;2.03;;
7076;SDS011;3579;48.956;9.154;2024-02-21T11:19:58;7.23;;;1.80;;
7076;SDS011;3579;48.956;9.154;2024-02-21T11:22:25;5.17;;;2.30;;
7076;SDS011;3579;48.956;9.154;2024-02-21T11:24:54;4.40;;;1.90;;
7076;SDS011;3579;48.956;9.154;2024-02-21T11:27:21;5.87;;;2.10;;
7076;SDS011;3579;48.956;9.154;2024-02-21T11:29:54;4.30;;;1.93;;
7076;SDS011;3579;48.956;9.154;2024-02-21T11:32:21;6.07;;;2.10;;
7076;SDS011;3579;48.956;9.154;2024-02-21T11:34:57;3.73;;;2.10;;
7076;SDS011;3579;48.956;9.154;2024-02-21T11:37:28;5.40;;;1.97;;
7076;SDS011;3579;48.956;9.154;2024-02-21T11:39:54;4.63;;;2.10;;
7076;SDS011;3579;48.956;9.154;2024-02-21T11:42:21;5.03;;;1.80;;
7076;SDS011;3579;48.956;9.154;2024-02-21T11:44:48;8.03;;;2.20;;
7076;SDS011;3579;48.956;9.154;2024-02-21T11:47:14;6.23;;;2.00;;
7076;SDS011;3579;48.956;9.154;2024-02-21T11:49:47;5.53;;;1.87;;
7076;SDS011;3579;48.956;9.154;2024-02-21T11:52:16;4.20;;;2.03;;
7076;SDS011;3579;48.956;9.154;2024-02-21T11:54:44;8.57;;;2.20;;
7076;SDS011;3579;48.956;9.154;2024-02-21T11:57:10;6.40;;;2.03;;
7076;SDS011;3579;48.956;9.154;2024-02-21T11:59:36;7.90;;;2.07;;
7076;SDS011;3579;48.956;9.154;2024-02-21T12:02:05;4.70;;;2.00;;
7076;SDS011;3579;48.956;9.154;2024-02-21T12:04:32;6.43;;;1.83;;
7076;SDS011;3579;48.956;9.154;2024-02-21T12:06:58;5.50;;;2.30;;
7076;SDS011;3579;48.956;9.154;2024-02-21T12:09:25;7.60;;;2.40;;
7076;SDS011;3579;48.956;9.154;2024-02-21T12:12:01;2.83;;;1.80;;
7076;SDS011;3579;48.956;9.154;2024-02-21T12:14:33;7.03;;;1.77;;
7076;SDS011;3579;48.956;9.154;2024-02-21T12:17:01;3.63;;;1.70;;
7076;SDS011;3579;48.956;9.154;2024-02-21T12:19:30;4.07;;;1.93;;
7076;SDS011;3579;48.956;9.154;2024-02-21T12:21:58;6.03;;;1.60;;
7076;SDS011;3579;48.956;9.154;2024-02-21T12:24:26;5.07;;;2.13;;
7076;SDS011;3579;48.956;9.154;2024-02-21T12:26:53;4.00;;;1.70;;
7076;SDS011;3579;48.956;9.154;2024-02-21T12:29:22;4.07;;;1.90;;
7076;SDS011;3579;48.956;9.154;2024-02-21T12:31:50;4.87;;;1.80;;
7076;SDS011;3579;48.956;9.154;2024-02-21T12:34:16;3.33;;;1.80;;
7076;SDS011;3579;48.956;9.154;2024-02-21T12:36:43;7.83;;;2.40;;
7076;SDS011;3579;48.956;9.154;2024-02-21T12:39:14;4.47;;;2.17;;
7076;SDS011;3579;48.956;9.154;2024-02-21T12:41:40;3.03;;;1.90;;
7076;SDS011;3579;48.956;9.154;2024-02-21T12:44:08;6.43;;;1.90;;
7076;SDS011;3579;48.956;9.154;2024-02-21T12:46:36;7.20;;;1.73;;
7076;SDS011;3579;48.956;9.154;2024-02-21T12:49:03;3.50;;;2.00;;
7076;SDS011;3579;48.956;9.154;2024-02-21T12:51:35;7.30;;;1.80;;
7076;SDS011;3579;48.956;9.154;2024-02-21T12:54:01;5.30;;;2.13;;
7076;SDS011;3579;48.956;9.154;2024-02-21T12:56:31;5.97;;;1.63;;
7076;SDS011;3579;48.956;9.154;2024-02-21T12:58:57;4.03;;;1.77;;
7076;SDS011;3579;48.956;9.154;2024-02-21T13:01:23;2.97;;;1.83;;
7076;SDS011;3579;48.956;9.154;2024-02-21T13:03:49;2.87;;;1.60;;
7076;SDS011;3579;48.956;9.154;2024-02-21T13:06:16;5.27;;;1.53;;
7076;SDS011;3579;48.956;9.154;2024-02-21T13:08:42;5.20;;;2.10;;
7076;SDS011;3579;48.956;9.154;2024-02-21T13:11:09;5.00;;;1.97;;
7076;SDS011;3579;48.956;9.154;2024-02-21T13:13:36;6.27;;;2.70;;
7076;SDS011;3579;48.956;9.154;2024-02-21T13:16:02;3.00;;;1.77;;
7076;SDS011;3579;48.956;9.154;2024-02-21T13:18:29;2.73;;;1.60;;
7076;SDS011;3579;48.956;9.154;2024-02-21T13:20:55;4.67;;;1.63;;
7076;SDS011;3579;48.956;9.154;2024-02-21T13:23:21;5.45;;;2.03;;
7076;SDS011;3579;48.956;9.154;2024-02-21T13:25:47;6.70;;;2.60;;
7076;SDS011;3579;48.956;9.154;2024-02-21T13:28:15;8.33;;;2.47;;
7076;SDS011;3579;48.956;9.154;2024-02-21T13:30:42;8.20;;;2.73;;
7076;SDS011;3579;48.956;9.154;2024-02-21T13:33:08;5.93;;;2.37;;
7076;SDS011;3579;48.956;9.154;2024-02-21T13:35:35;9.60;;;2.63;;
7076;SDS011;3579;48.956;9.154;2024-02-21T13:38:02;5.07;;;2.13;;
7076;SDS011;3579;48.956;9.154;2024-02-21T13:40:29;11.97;;;2.60;;
7076;SDS011;3579;48.956;9.154;2024-02-21T13:42:55;5.83;;;2.60;;
7076;SDS011;3579;48.956;9.154;2024-02-21T13:45:21;8.07;;;2.70;;
7076;SDS011;3579;48.956;9.154;2024-02-21T13:47:48;9.87;;;2.50;;
7076;SDS011;3579;48.956;9.154;2024-02-21T13:50:15;9.07;;;2.90;;
7076;SDS011;3579;48.956;9.154;2024-02-21T13:52:42;8.07;;;2.10;;
7076;SDS011;3579;48.956;9.154;2024-02-21T13:55:08;5.13;;;2.00;;
7076;SDS011;3579;48.956;9.154;2024-02-21T13:57:38;5.63;;;2.30;;
7076;SDS011;3579;48.956;9.154;2024-02-21T14:00:04;10.40;;;2.47;;
7076;SDS011;3579;48.956;9.154;2024-02-21T14:02:32;6.70;;;2.57;;
7076;SDS011;3579;48.956;9.154;2024-02-21T14:04:59;6.90;;;2.33;;
7076;SDS011;3579;48.956;9.154;2024-02-21T14:07:25;10.17;;;2.77;;
7076;SDS011;3579;48.956;9.154;2024-02-21T14:09:51;10.70;;;2.20;;
7076;SDS011;3579;48.956;9.154;2024-02-21T14:12:17;6.83;;;2.13;;
7076;SDS011;3579;48.956;9.154;2024-02-21T14:14:46;6.83;;;2.00;;
7076;SDS011;3579;48.956;9.154;2024-02-21T14:17:12;7.87;;;2.30;;
7076;SDS011;3579;48.956;9.154;2024-02-21T14:19:38;6.03;;;2.00;;
7076;SDS011;3579;48.956;9.154;2024-02-21T14:22:04;6.67;;;2.00;;
7076;SDS011;3579;48.956;9.154;2024-02-21T14:24:31;6.07;;;2.40;;
7076;SDS011;3579;48.956;9.154;2024-02-21T14:26:57;13.30;;;2.37;;
7076;SDS011;3579;48.956;9.154;2024-02-21T14:29:25;7.27;;;2.00;;
7076;SDS011;3579;48.956;9.154;2024-02-21T14:31:51;8.97;;;2.40;;
7076;SDS011;3579;48.956;9.154;2024-02-21T14:34:17;7.60;;;2.10;;
7076;SDS011;3579;48.956;9.154;2024-02-21T14:36:44;11.57;;;3.13;;
7076;SDS011;3579;48.956;9.154;2024-02-21T14:39:10;12.80;;;2.60;;
7076;SDS011;3579;48.956;9.154;2024-02-21T14:41:36;6.70;;;2.30;;
7076;SDS011;3579;48.956;9.154;2024-02-21T14:44:02;12.63;;;2.93;;
7076;SDS011;3579;48.956;9.154;2024-02-21T14:46:28;7.27;;;2.63;;
7076;SDS011;3579;48.956;9.154;2024-02-21T14:48:55;10.23;;;2.60;;
7076;SDS011;3579;48.956;9.154;2024-02-21T14:51:21;15.00;;;2.47;;
7076;SDS011;3579;48.956;9.154;2024-02-21T14:53:48;7.23;;;2.43;;
7076;SDS011;3579;48.956;9.154;2024-02-21T14:56:14;10.07;;;2.77;;
7076;SDS011;3579;48.956;9.154;2024-02-21T14:58:41;11.90;;;2.80;;
7076;SDS011;3579;48.956;9.154;2024-02-21T15:01:07;6.60;;;2.70;;
7076;SDS011;3579;48.956;9.154;2024-02-21T15:03:34;10.33;;;2.50;;
7076;SDS011;3579;48.956;9.154;2024-02-21T15:06:00;6.93;;;2.53;;
7076;SDS011;3579;48.956;9.154;2024-02-21T15:08:27;8.23;;;2.63;;
7076;SDS011;3579;48.956;9.154;2024-02-21T15:10:54;8.73;;;2.83;;
7076;SDS011;3579;48.956;9.154;2024-02-21T15:13:20;6.77;;;2.33;;
7076;SDS011;3579;48.956;9.154;2024-02-21T15:15:47;9.67;;;2.27;;
7076;SDS011;3579;48.956;9.154;2024-02-21T15:18:14;9.20;;;2.83;;
7076;SDS011;3579;48.956;9.154;2024-02-21T15:20:40;8.27;;;2.50;;
7076;SDS011;3579;48.956;9.154;2024-02-21T15:23:07;8.40;;;3.10;;
7076;SDS011;3579;48.956;9.154;2024-02-21T15:25:33;8.90;;;3.27;;